sensor_id;sensor_type;location;lat;lon;timestamp;pressure;altitude;pressure_sealevel;temperature;humidity
64388;BME280;50709;52.648;4.764;2022-07-04T00:02:17;102007.88;;;20.70;56.54
64388;BME280;50709;52.648;4.764;2022-07-04T00:04:42;102021.72;;;20.84;56.46
64388;BME280;50709;52.648;4.764;2022-07-04T00:07:08;102028.72;;;20.88;56.17
64388;BME280;50709;52.648;4.764;2022-07-04T00:09:34;101984.50;;;20.45;56.62
64388;BME280;50709;52.648;4.764;2022-07-04T00:11:59;102015.00;;;20.66;56.34
64388;BME280;50709;52.648;4.764;2022-07-04T00:14:24;102029.16;;;20.66;55.68
64388;BME280;50709;52.648;4.764;2022-07-04T00:16:50;102020.59;;;20.52;56.78
64388;BME280;50709;52.648;4.764;2022-07-04T00:19:15;102020.72;;;20.46;57.87
64388;BME280;50709;52.648;4.764;2022-07-04T00:21:40;102004.19;;;20.33;57.87
64388;BME280;50709;52.648;4.764;2022-07-04T00:24:06;102013.78;;;20.39;57.84
64388;BME280;50709;52.648;4.764;2022-07-04T00:26:31;102014.47;;;20.48;57.56
64388;BME280;50709;52.648;4.764;2022-07-04T00:28:56;102021.66;;;20.43;58.05
64388;BME280;50709;52.648;4.764;2022-07-04T00:31:22;102009.75;;;20.21;57.68
64388;BME280;50709;52.648;4.764;2022-07-04T00:33:47;102005.34;;;20.20;57.08
64388;BME280;50709;52.648;4.764;2022-07-04T00:36:12;101996.94;;;19.96;58.72
64388;BME280;50709;52.648;4.764;2022-07-04T00:38:38;101996.88;;;20.00;58.58
64388;BME280;50709;52.648;4.764;2022-07-04T00:41:03;102003.63;;;20.17;58.15
64388;BME280;50709;52.648;4.764;2022-07-04T00:43:28;101997.31;;;20.23;58.03
64388;BME280;50709;52.648;4.764;2022-07-04T00:45:54;102000.81;;;20.25;58.14
64388;BME280;50709;52.648;4.764;2022-07-04T00:48:20;101991.03;;;20.27;57.53
64388;BME280;50709;52.648;4.764;2022-07-04T00:50:45;101994.91;;;20.10;57.99
64388;BME280;50709;52.648;4.764;2022-07-04T00:53:14;101995.97;;;20.02;57.99
64388;BME280;50709;52.648;4.764;2022-07-04T00:55:41;101947.19;;;19.60;58.81
64388;BME280;50709;52.648;4.764;2022-07-04T00:58:07;102001.41;;;19.94;59.51
64388;BME280;50709;52.648;4.764;2022-07-04T01:00:33;101989.84;;;19.98;58.90
64388;BME280;50709;52.648;4.764;2022-07-04T01:02:58;101988.81;;;20.05;58.64
64388;BME280;50709;52.648;4.764;2022-07-04T01:05:23;101987.47;;;19.84;58.96
64388;BME280;50709;52.648;4.764;2022-07-04T01:07:49;101973.94;;;19.98;58.49
64388;BME280;50709;52.648;4.764;2022-07-04T01:10:15;101971.44;;;19.89;58.72
64388;BME280;50709;52.648;4.764;2022-07-04T01:12:40;101971.31;;;19.96;58.77
64388;BME280;50709;52.648;4.764;2022-07-04T01:15:07;101981.72;;;20.07;58.97
64388;BME280;50709;52.648;4.764;2022-07-04T01:17:33;101983.56;;;20.02;58.79
64388;BME280;50709;52.648;4.764;2022-07-04T01:19:58;101977.63;;;19.89;59.59
64388;BME280;50709;52.648;4.764;2022-07-04T01:22:24;101937.19;;;19.76;58.89
64388;BME280;50709;52.648;4.764;2022-07-04T01:24:50;101973.81;;;20.03;59.06
64388;BME280;50709;52.648;4.764;2022-07-04T01:27:16;101958.38;;;19.78;59.00
64388;BME280;50709;52.648;4.764;2022-07-04T01:29:42;101974.00;;;19.95;58.80
64388;BME280;50709;52.648;4.764;2022-07-04T01:32:08;101976.56;;;19.99;59.12
64388;BME280;50709;52.648;4.764;2022-07-04T01:34:34;101972.34;;;19.88;59.30
64388;BME280;50709;52.648;4.764;2022-07-04T01:37:01;101978.59;;;19.83;58.99
64388;BME280;50709;52.648;4.764;2022-07-04T01:39:27;101968.19;;;19.71;59.75
64388;BME280;50709;52.648;4.764;2022-07-04T01:41:53;101970.06;;;19.66;59.80
64388;BME280;50709;52.648;4.764;2022-07-04T01:44:18;101961.44;;;19.55;60.54
64388;BME280;50709;52.648;4.764;2022-07-04T01:46:44;101971.59;;;19.79;59.69
64388;BME280;50709;52.648;4.764;2022-07-04T01:49:09;101978.59;;;19.83;59.87
64388;BME280;50709;52.648;4.764;2022-07-04T01:51:34;101974.09;;;19.89;58.98
64388;BME280;50709;52.648;4.764;2022-07-04T01:54:00;101967.78;;;19.96;59.51
64388;BME280;50709;52.648;4.764;2022-07-04T01:56:25;101971.34;;;19.95;59.57
64388;BME280;50709;52.648;4.764;2022-07-04T01:58:50;101971.34;;;19.95;59.94
64388;BME280;50709;52.648;4.764;2022-07-04T02:01:16;101972.06;;;20.03;59.58
64388;BME280;50709;52.648;4.764;2022-07-04T02:04:02;101969.84;;;20.25;58.86
64388;BME280;50709;52.648;4.764;2022-07-04T02:06:28;101977.72;;;20.30;58.85
64388;BME280;50709;52.648;4.764;2022-07-04T02:08:54;101976.00;;;20.26;58.51
64388;BME280;50709;52.648;4.764;2022-07-04T02:11:39;101989.31;;;20.24;58.72
64388;BME280;50709;52.648;4.764;2022-07-04T02:14:23;101977.03;;;20.20;59.18
64388;BME280;50709;52.648;4.764;2022-07-04T02:16:48;101969.16;;;20.15;59.16
64388;BME280;50709;52.648;4.764;2022-07-04T02:19:14;101974.31;;;20.23;59.17
64388;BME280;50709;52.648;4.764;2022-07-04T02:21:39;101979.44;;;20.31;59.11
64388;BME280;50709;52.648;4.764;2022-07-04T02:24:05;101941.59;;;20.23;58.43
64388;BME280;50709;52.648;4.764;2022-07-04T02:26:30;101980.78;;;20.52;58.39
64388;BME280;50709;52.648;4.764;2022-07-04T02:28:56;101994.22;;;20.44;58.54
64388;BME280;50709;52.648;4.764;2022-07-04T02:31:22;101992.44;;;20.45;58.65
64388;BME280;50709;52.648;4.764;2022-07-04T02:33:48;101968.38;;;20.53;58.46
64388;BME280;50709;52.648;4.764;2022-07-04T02:36:13;101976.94;;;20.25;59.73
64388;BME280;50709;52.648;4.764;2022-07-04T02:38:39;101964.00;;;20.50;59.20
64388;BME280;50709;52.648;4.764;2022-07-04T02:41:04;101960.31;;;20.59;58.90
64388;BME280;50709;52.648;4.764;2022-07-04T02:43:30;101971.69;;;20.23;60.38
64388;BME280;50709;52.648;4.764;2022-07-04T02:45:55;101952.66;;;20.43;59.61
64388;BME280;50709;52.648;4.764;2022-07-04T02:48:21;101967.50;;;20.54;59.43
64388;BME280;50709;52.648;4.764;2022-07-04T02:50:46;101959.88;;;20.38;60.71
64388;BME280;50709;52.648;4.764;2022-07-04T02:53:11;101932.44;;;20.38;60.32
64388;BME280;50709;52.648;4.764;2022-07-04T02:55:37;101940.38;;;20.39;60.62
64388;BME280;50709;52.648;4.764;2022-07-04T02:58:02;101916.75;;;20.27;60.56
64388;BME280;50709;52.648;4.764;2022-07-04T03:00:28;101966.91;;;20.39;61.09
64388;BME280;50709;52.648;4.764;2022-07-04T03:02:54;101964.13;;;20.45;61.42
64388;BME280;50709;52.648;4.764;2022-07-04T03:05:19;101963.16;;;20.49;61.80
64388;BME280;50709;52.648;4.764;2022-07-04T03:07:45;101960.91;;;20.73;61.18
64388;BME280;50709;52.648;4.764;2022-07-04T03:10:10;101958.31;;;20.70;61.26
64388;BME280;50709;52.648;4.764;2022-07-04T03:12:35;101959.16;;;20.72;61.02
64388;BME280;50709;52.648;4.764;2022-07-04T03:15:01;101955.69;;;20.67;61.58
64388;BME280;50709;52.648;4.764;2022-07-04T03:17:26;101962.91;;;20.60;61.20
64388;BME280;50709;52.648;4.764;2022-07-04T03:19:51;101959.81;;;20.82;61.11
64388;BME280;50709;52.648;4.764;2022-07-04T03:22:17;101955.47;;;20.78;61.17
64388;BME280;50709;52.648;4.764;2022-07-04T03:24:43;101969.63;;;20.80;61.10
64388;BME280;50709;52.648;4.764;2022-07-04T03:27:08;101971.53;;;20.73;61.50
64388;BME280;50709;52.648;4.764;2022-07-04T03:29:34;101961.88;;;20.67;61.66
64388;BME280;50709;52.648;4.764;2022-07-04T03:32:00;101955.78;;;20.64;61.27
64388;BME280;50709;52.648;4.764;2022-07-04T03:34:25;101960.19;;;20.65;61.44
64388;BME280;50709;52.648;4.764;2022-07-04T03:36:51;101959.25;;;20.69;61.53
64388;BME280;50709;52.648;4.764;2022-07-04T03:39:16;101947.56;;;20.76;61.04
64388;BME280;50709;52.648;4.764;2022-07-04T03:41:41;101911.88;;;20.49;61.07
64388;BME280;50709;52.648;4.764;2022-07-04T03:44:07;101959.00;;;20.78;61.04
64388;BME280;50709;52.648;4.764;2022-07-04T03:46:32;101963.25;;;20.87;61.11
64388;BME280;50709;52.648;4.764;2022-07-04T03:48:57;101967.66;;;20.88;60.84
64388;BME280;50709;52.648;4.764;2022-07-04T03:51:24;101930.16;;;20.61;60.88
64388;BME280;50709;52.648;4.764;2022-07-04T03:53:49;101925.88;;;20.54;60.88
64388;BME280;50709;52.648;4.764;2022-07-04T03:56:15;101961.94;;;20.64;61.36
64388;BME280;50709;52.648;4.764;2022-07-04T03:58:40;101969.66;;;20.34;62.49
64388;BME280;50709;52.648;4.764;2022-07-04T04:01:08;101953.56;;;20.44;61.83
64388;BME280;50709;52.648;4.764;2022-07-04T04:03:33;101982.50;;;20.55;62.24
64388;BME280;50709;52.648;4.764;2022-07-04T04:06:17;101964.13;;;20.45;62.11
64388;BME280;50709;52.648;4.764;2022-07-04T04:08:43;101956.72;;;20.61;61.20
64388;BME280;50709;52.648;4.764;2022-07-04T04:11:08;101971.69;;;20.64;61.23
64388;BME280;50709;52.648;4.764;2022-07-04T04:13:34;101967.22;;;20.66;60.85
64388;BME280;50709;52.648;4.764;2022-07-04T04:15:59;101979.50;;;20.73;60.99
64388;BME280;50709;52.648;4.764;2022-07-04T04:18:24;101969.44;;;20.45;61.23
64388;BME280;50709;52.648;4.764;2022-07-04T04:20:50;101972.50;;;20.69;61.17
64388;BME280;50709;52.648;4.764;2022-07-04T04:23:15;101979.44;;;20.31;61.91
64388;BME280;50709;52.648;4.764;2022-07-04T04:25:41;101991.81;;;20.76;61.23
64388;BME280;50709;52.648;4.764;2022-07-04T04:28:07;101983.09;;;20.67;61.00
64388;BME280;50709;52.648;4.764;2022-07-04T04:30:32;101996.53;;;20.61;61.05
64388;BME280;50709;52.648;4.764;2022-07-04T04:32:58;101953.47;;;20.47;60.99
64388;BME280;50709;52.648;4.764;2022-07-04T04:35:24;101987.59;;;20.65;60.59
64388;BME280;50709;52.648;4.764;2022-07-04T04:37:49;101988.88;;;20.88;59.94
64388;BME280;50709;52.648;4.764;2022-07-04T04:40:14;101951.84;;;20.82;59.88
64388;BME280;50709;52.648;4.764;2022-07-04T04:42:40;101998.69;;;20.84;60.01
64388;BME280;50709;52.648;4.764;2022-07-04T04:45:06;101952.88;;;20.32;59.92
64388;BME280;50709;52.648;4.764;2022-07-04T04:47:31;101964.56;;;20.66;59.36
64388;BME280;50709;52.648;4.764;2022-07-04T04:49:56;101987.25;;;20.81;59.87
64388;BME280;50709;52.648;4.764;2022-07-04T04:52:22;101986.03;;;20.55;59.88
64388;BME280;50709;52.648;4.764;2022-07-04T04:54:47;102008.53;;;20.79;58.34
64388;BME280;50709;52.648;4.764;2022-07-04T04:57:12;101947.63;;;20.31;59.32
64388;BME280;50709;52.648;4.764;2022-07-04T04:59:38;101984.84;;;20.70;58.68
64388;BME280;50709;52.648;4.764;2022-07-04T05:02:03;101972.09;;;20.86;58.21
64388;BME280;50709;52.648;4.764;2022-07-04T05:04:29;101990.94;;;20.75;57.44
64388;BME280;50709;52.648;4.764;2022-07-04T05:06:54;101986.28;;;20.43;58.70
64388;BME280;50709;52.648;4.764;2022-07-04T05:09:20;102001.22;;;20.91;57.39
64388;BME280;50709;52.648;4.764;2022-07-04T05:11:46;101982.75;;;20.84;57.25
64388;BME280;50709;52.648;4.764;2022-07-04T05:14:12;102007.31;;;21.32;56.51
64388;BME280;50709;52.648;4.764;2022-07-04T05:16:37;102012.63;;;21.32;55.77
64388;BME280;50709;52.648;4.764;2022-07-04T05:19:03;102021.97;;;21.48;56.04
64388;BME280;50709;52.648;4.764;2022-07-04T05:21:28;102014.81;;;21.14;56.44
64388;BME280;50709;52.648;4.764;2022-07-04T05:23:54;102018.94;;;21.28;54.80
64388;BME280;50709;52.648;4.764;2022-07-04T05:26:20;102023.81;;;21.46;54.39
64388;BME280;50709;52.648;4.764;2022-07-04T05:28:45;102025.53;;;21.49;55.22
64388;BME280;50709;52.648;4.764;2022-07-04T05:31:11;102013.63;;;21.65;56.05
64388;BME280;50709;52.648;4.764;2022-07-04T05:33:36;102019.22;;;21.89;55.94
64388;BME280;50709;52.648;4.764;2022-07-04T05:36:02;102003.53;;;21.78;54.35
64388;BME280;50709;52.648;4.764;2022-07-04T05:38:27;102018.47;;;21.84;55.76
64388;BME280;50709;52.648;4.764;2022-07-04T05:40:53;102000.81;;;21.81;55.11
64388;BME280;50709;52.648;4.764;2022-07-04T05:43:18;101996.22;;;21.87;54.78
64388;BME280;50709;52.648;4.764;2022-07-04T05:45:46;101988.03;;;21.94;53.77
64388;BME280;50709;52.648;4.764;2022-07-04T05:48:13;102018.53;;;22.14;53.50
64388;BME280;50709;52.648;4.764;2022-07-04T05:50:38;102004.88;;;22.88;52.64
64388;BME280;50709;52.648;4.764;2022-07-04T05:53:04;101996.94;;;22.86;51.89
64388;BME280;50709;52.648;4.764;2022-07-04T05:55:29;101994.16;;;23.19;51.25
64388;BME280;50709;52.648;4.764;2022-07-04T05:57:55;102007.72;;;23.65;50.01
64388;BME280;50709;52.648;4.764;2022-07-04T06:00:20;101968.84;;;23.32;49.87
64388;BME280;50709;52.648;4.764;2022-07-04T06:02:46;101961.63;;;23.87;49.00
64388;BME280;50709;52.648;4.764;2022-07-04T06:05:11;101998.16;;;23.84;48.80
64388;BME280;50709;52.648;4.764;2022-07-04T06:07:37;101993.19;;;24.48;48.02
64388;BME280;50709;52.648;4.764;2022-07-04T06:10:03;102005.56;;;24.27;48.46
64388;BME280;50709;52.648;4.764;2022-07-04T06:12:29;101989.72;;;24.46;48.08
64388;BME280;50709;52.648;4.764;2022-07-04T06:14:54;102000.41;;;24.46;47.94
64388;BME280;50709;52.648;4.764;2022-07-04T06:17:19;101994.88;;;24.50;48.19
64388;BME280;50709;52.648;4.764;2022-07-04T06:19:45;101993.38;;;24.43;48.08
64388;BME280;50709;52.648;4.764;2022-07-04T06:22:10;102012.34;;;24.83;47.64
64388;BME280;50709;52.648;4.764;2022-07-04T06:24:35;102001.22;;;24.24;48.69
64388;BME280;50709;52.648;4.764;2022-07-04T06:27:01;101996.34;;;24.35;47.75
64388;BME280;50709;52.648;4.764;2022-07-04T06:29:28;101996.28;;;24.61;47.59
64388;BME280;50709;52.648;4.764;2022-07-04T06:31:53;102011.25;;;24.89;47.00
64388;BME280;50709;52.648;4.764;2022-07-04T06:34:19;102000.69;;;24.85;47.21
64388;BME280;50709;52.648;4.764;2022-07-04T06:37:02;102011.22;;;24.66;47.52
64388;BME280;50709;52.648;4.764;2022-07-04T06:39:28;102017.19;;;24.26;48.26
64388;BME280;50709;52.648;4.764;2022-07-04T06:41:53;102020.25;;;23.90;49.42
64388;BME280;50709;52.648;4.764;2022-07-04T06:44:19;102031.31;;;24.28;49.16
64388;BME280;50709;52.648;4.764;2022-07-04T06:46:44;102009.03;;;24.29;48.41
64388;BME280;50709;52.648;4.764;2022-07-04T06:49:11;102023.50;;;24.47;48.07
64388;BME280;50709;52.648;4.764;2022-07-04T06:51:36;102025.00;;;25.01;47.59
64388;BME280;50709;52.648;4.764;2022-07-04T06:54:02;102003.66;;;24.78;47.75
64388;BME280;50709;52.648;4.764;2022-07-04T06:56:27;101999.56;;;24.91;47.30
64388;BME280;50709;52.648;4.764;2022-07-04T06:58:52;102023.47;;;24.48;47.10
64388;BME280;50709;52.648;4.764;2022-07-04T07:01:18;102014.31;;;24.79;47.38
64388;BME280;50709;52.648;4.764;2022-07-04T07:03:43;101981.84;;;24.66;47.49
64388;BME280;50709;52.648;4.764;2022-07-04T07:06:08;102027.25;;;24.90;46.84
64388;BME280;50709;52.648;4.764;2022-07-04T07:08:34;102021.72;;;24.71;47.77
64388;BME280;50709;52.648;4.764;2022-07-04T07:10:59;102027.41;;;24.85;46.04
64388;BME280;50709;52.648;4.764;2022-07-04T07:13:49;102027.09;;;24.93;46.94
64388;BME280;50709;52.648;4.764;2022-07-04T07:16:16;102020.91;;;25.37;45.94
64388;BME280;50709;52.648;4.764;2022-07-04T07:18:42;102015.72;;;25.55;45.57
64388;BME280;50709;52.648;4.764;2022-07-04T07:21:08;102009.06;;;25.43;45.82
64388;BME280;50709;52.648;4.764;2022-07-04T07:23:33;102018.38;;;25.10;46.15
64388;BME280;50709;52.648;4.764;2022-07-04T07:25:59;102017.91;;;25.23;46.37
64388;BME280;50709;52.648;4.764;2022-07-04T07:28:27;102020.44;;;25.48;44.94
64388;BME280;50709;52.648;4.764;2022-07-04T07:30:52;102017.03;;;25.22;46.37
64388;BME280;50709;52.648;4.764;2022-07-04T07:33:17;102024.19;;;25.22;44.96
64388;BME280;50709;52.648;4.764;2022-07-04T07:35:43;102017.56;;;25.30;45.97
64388;BME280;50709;52.648;4.764;2022-07-04T07:38:08;102011.44;;;25.06;45.99
64388;BME280;50709;52.648;4.764;2022-07-04T07:40:33;102031.97;;;25.50;44.85
64388;BME280;50709;52.648;4.764;2022-07-04T07:42:59;102022.13;;;25.50;44.87
64388;BME280;50709;52.648;4.764;2022-07-04T07:45:24;102022.13;;;25.50;45.15
64388;BME280;50709;52.648;4.764;2022-07-04T07:47:49;102017.84;;;25.46;45.16
64388;BME280;50709;52.648;4.764;2022-07-04T07:50:15;102026.00;;;25.43;45.42
64388;BME280;50709;52.648;4.764;2022-07-04T07:52:40;102025.41;;;24.91;45.64
64388;BME280;50709;52.648;4.764;2022-07-04T07:55:06;102042.38;;;24.90;45.14
64388;BME280;50709;52.648;4.764;2022-07-04T07:57:32;102033.97;;;25.23;46.35
64388;BME280;50709;52.648;4.764;2022-07-04T07:59:57;102016.59;;;24.89;46.69
64388;BME280;50709;52.648;4.764;2022-07-04T08:02:23;102020.22;;;24.88;47.20
64388;BME280;50709;52.648;4.764;2022-07-04T08:05:10;102037.06;;;25.12;46.13
64388;BME280;50709;52.648;4.764;2022-07-04T08:07:36;102028.47;;;25.03;44.64
64388;BME280;50709;52.648;4.764;2022-07-04T08:10:02;101989.69;;;24.93;44.77
64388;BME280;50709;52.648;4.764;2022-07-04T08:12:27;102038.19;;;25.28;45.06
64388;BME280;50709;52.648;4.764;2022-07-04T08:14:52;102056.28;;;25.44;45.87
64388;BME280;50709;52.648;4.764;2022-07-04T08:17:18;102049.63;;;25.54;45.80
64388;BME280;50709;52.648;4.764;2022-07-04T08:19:43;102056.97;;;25.69;44.62
64388;BME280;50709;52.648;4.764;2022-07-04T08:22:08;102058.66;;;25.72;45.34
64388;BME280;50709;52.648;4.764;2022-07-04T08:24:34;102063.84;;;25.32;45.62
64388;BME280;50709;52.648;4.764;2022-07-04T08:26:59;102048.19;;;25.45;42.54
64388;BME280;50709;52.648;4.764;2022-07-04T08:29:24;102063.75;;;25.78;45.47
64388;BME280;50709;52.648;4.764;2022-07-04T08:31:52;102024.44;;;25.15;42.49
64388;BME280;50709;52.648;4.764;2022-07-04T08:34:18;102050.84;;;25.01;44.73
64388;BME280;50709;52.648;4.764;2022-07-04T08:36:43;102080.44;;;25.63;45.08
64388;BME280;50709;52.648;4.764;2022-07-04T08:39:09;102079.50;;;25.43;42.91
64388;BME280;50709;52.648;4.764;2022-07-04T08:41:38;102076.72;;;25.67;42.25
64388;BME280;50709;52.648;4.764;2022-07-04T08:44:06;102047.13;;;25.27;40.46
64388;BME280;50709;52.648;4.764;2022-07-04T08:46:33;102087.72;;;26.02;39.22
64388;BME280;50709;52.648;4.764;2022-07-04T08:49:02;102089.16;;;25.89;42.17
64388;BME280;50709;52.648;4.764;2022-07-04T08:51:58;102080.69;;;25.36;41.17
64388;BME280;50709;52.648;4.764;2022-07-04T08:54:28;102087.06;;;25.54;39.88
64388;BME280;50709;52.648;4.764;2022-07-04T08:57:16;102091.38;;;25.99;42.48
64388;BME280;50709;52.648;4.764;2022-07-04T09:00:00;102083.22;;;26.04;39.80
64388;BME280;50709;52.648;4.764;2022-07-04T09:02:29;102087.00;;;25.98;44.71
64388;BME280;50709;52.648;4.764;2022-07-04T09:04:54;102091.53;;;25.76;42.54
64388;BME280;50709;52.648;4.764;2022-07-04T09:07:20;102084.13;;;25.60;39.89
64388;BME280;50709;52.648;4.764;2022-07-04T09:09:45;102081.69;;;25.76;42.67
64388;BME280;50709;52.648;4.764;2022-07-04T09:12:11;102044.44;;;25.92;41.31
64388;BME280;50709;52.648;4.764;2022-07-04T09:14:38;102059.66;;;26.12;39.54
64388;BME280;50709;52.648;4.764;2022-07-04T09:17:05;102081.81;;;25.94;43.44
64388;BME280;50709;52.648;4.764;2022-07-04T09:19:30;102084.31;;;25.98;43.37
64388;BME280;50709;52.648;4.764;2022-07-04T09:21:55;102067.53;;;26.15;42.74
64388;BME280;50709;52.648;4.764;2022-07-04T09:24:43;102092.38;;;26.19;40.68
64388;BME280;50709;52.648;4.764;2022-07-04T09:27:09;102091.91;;;25.66;42.66
64388;BME280;50709;52.648;4.764;2022-07-04T09:29:59;102088.47;;;25.85;39.45
64388;BME280;50709;52.648;4.764;2022-07-04T09:32:39;102105.97;;;25.92;42.23
64388;BME280;50709;52.648;4.764;2022-07-04T09:35:13;102097.00;;;26.36;42.29
64388;BME280;50709;52.648;4.764;2022-07-04T09:37:49;102059.03;;;26.26;36.94
64388;BME280;50709;52.648;4.764;2022-07-04T09:40:35;102096.56;;;26.25;41.49
64388;BME280;50709;52.648;4.764;2022-07-04T09:43:19;102101.66;;;26.10;37.06
64388;BME280;50709;52.648;4.764;2022-07-04T09:45:58;102062.72;;;26.03;42.64
64388;BME280;50709;52.648;4.764;2022-07-04T09:48:23;102078.72;;;26.05;36.91
64388;BME280;50709;52.648;4.764;2022-07-04T09:50:49;102042.63;;;25.93;35.98
64388;BME280;50709;52.648;4.764;2022-07-04T09:53:15;102085.19;;;25.99;39.60
64388;BME280;50709;52.648;4.764;2022-07-04T09:55:40;102096.91;;;26.17;38.97
64388;BME280;50709;52.648;4.764;2022-07-04T09:58:10;102095.38;;;26.32;38.29
64388;BME280;50709;52.648;4.764;2022-07-04T10:00:41;102092.59;;;25.92;36.07
64388;BME280;50709;52.648;4.764;2022-07-04T10:05:42;102108.78;;;26.32;41.22
64388;BME280;50709;52.648;4.764;2022-07-04T10:08:09;102100.44;;;26.38;36.01
64388;BME280;50709;52.648;4.764;2022-07-04T10:10:36;102117.06;;;26.05;35.63
64388;BME280;50709;52.648;4.764;2022-07-04T10:13:06;102103.00;;;25.78;42.10
64388;BME280;50709;52.648;4.764;2022-07-04T10:15:33;102104.22;;;26.34;38.36
64388;BME280;50709;52.648;4.764;2022-07-04T10:18:00;102117.16;;;26.24;40.92
64388;BME280;50709;52.648;4.764;2022-07-04T10:20:25;102098.53;;;26.61;40.24
64388;BME280;50709;52.648;4.764;2022-07-04T10:22:51;102116.19;;;26.46;40.83
64388;BME280;50709;52.648;4.764;2022-07-04T10:25:17;102063.38;;;26.29;40.82
64388;BME280;50709;52.648;4.764;2022-07-04T10:27:42;102110.44;;;26.14;37.30
64388;BME280;50709;52.648;4.764;2022-07-04T10:30:12;102103.38;;;25.91;36.68
64388;BME280;50709;52.648;4.764;2022-07-04T10:32:38;102097.59;;;26.43;41.42
64388;BME280;50709;52.648;4.764;2022-07-04T10:35:05;102106.44;;;26.02;36.81
64388;BME280;50709;52.648;4.764;2022-07-04T10:37:58;102095.91;;;26.19;39.06
64388;BME280;50709;52.648;4.764;2022-07-04T10:40:44;102101.91;;;26.45;36.96
64388;BME280;50709;52.648;4.764;2022-07-04T10:48:35;102095.88;;;26.21;37.38
64388;BME280;50709;52.648;4.764;2022-07-04T10:51:02;102080.44;;;26.47;40.86
64388;BME280;50709;52.648;4.764;2022-07-04T10:53:28;102092.72;;;26.72;40.73
64388;BME280;50709;52.648;4.764;2022-07-04T10:55:54;102098.09;;;26.30;36.12
64388;BME280;50709;52.648;4.764;2022-07-04T10:58:40;102079.34;;;26.51;39.73
64388;BME280;50709;52.648;4.764;2022-07-04T11:03:47;102101.00;;;26.65;40.71
64388;BME280;50709;52.648;4.764;2022-07-04T11:09:16;102101.34;;;26.39;39.56
64388;BME280;50709;52.648;4.764;2022-07-04T11:11:59;102095.81;;;26.00;34.76
64388;BME280;50709;52.648;4.764;2022-07-04T11:16:55;102091.38;;;27.01;37.75
64388;BME280;50709;52.648;4.764;2022-07-04T11:19:21;102071.72;;;26.81;36.25
64388;BME280;50709;52.648;4.764;2022-07-04T11:21:47;102083.13;;;26.66;40.53
64388;BME280;50709;52.648;4.764;2022-07-04T11:24:13;102087.59;;;26.46;35.36
64388;BME280;50709;52.648;4.764;2022-07-04T11:26:38;102053.91;;;26.80;40.18
64388;BME280;50709;52.648;4.764;2022-07-04T11:29:04;102092.72;;;26.32;40.74
64388;BME280;50709;52.648;4.764;2022-07-04T11:31:37;102038.63;;;25.82;36.67
64388;BME280;50709;52.648;4.764;2022-07-04T11:34:03;102088.09;;;26.55;39.79
64388;BME280;50709;52.648;4.764;2022-07-04T11:36:28;102095.09;;;26.38;37.24
64388;BME280;50709;52.648;4.764;2022-07-04T11:38:54;102087.28;;;26.92;40.69
64388;BME280;50709;52.648;4.764;2022-07-04T11:41:23;102084.34;;;26.98;39.97
64388;BME280;50709;52.648;4.764;2022-07-04T11:44:11;102070.00;;;26.99;39.27
64388;BME280;50709;52.648;4.764;2022-07-04T11:47:16;102078.91;;;26.81;36.07
64388;BME280;50709;52.648;4.764;2022-07-04T11:52:11;102076.88;;;27.05;36.31
64388;BME280;50709;52.648;4.764;2022-07-04T11:54:39;102090.94;;;26.51;35.74
64388;BME280;50709;52.648;4.764;2022-07-04T11:57:14;102066.72;;;26.74;40.86
64388;BME280;50709;52.648;4.764;2022-07-04T11:59:39;102063.84;;;26.39;34.00
64388;BME280;50709;52.648;4.764;2022-07-04T12:02:13;102085.19;;;26.40;37.21
64388;BME280;50709;52.648;4.764;2022-07-04T12:04:39;102073.19;;;26.68;35.89
64388;BME280;50709;52.648;4.764;2022-07-04T12:09:36;102069.97;;;26.80;33.89
64388;BME280;50709;52.648;4.764;2022-07-04T12:12:01;102039.19;;;26.70;38.62
64388;BME280;50709;52.648;4.764;2022-07-04T12:14:27;102075.09;;;26.66;35.23
64388;BME280;50709;52.648;4.764;2022-07-04T12:17:13;102083.72;;;26.53;33.47
64388;BME280;50709;52.648;4.764;2022-07-04T12:19:59;102054.84;;;26.98;34.55
64388;BME280;50709;52.648;4.764;2022-07-04T12:25:01;102031.16;;;26.30;38.78
64388;BME280;50709;52.648;4.764;2022-07-04T12:27:27;102082.22;;;27.05;39.08
64388;BME280;50709;52.648;4.764;2022-07-04T12:29:54;102076.59;;;27.29;38.39
64388;BME280;50709;52.648;4.764;2022-07-04T12:32:20;102070.03;;;27.17;37.83
64388;BME280;50709;52.648;4.764;2022-07-04T12:34:46;102072.13;;;27.29;37.30
64388;BME280;50709;52.648;4.764;2022-07-04T12:37:13;102064.41;;;27.04;37.01
64388;BME280;50709;52.648;4.764;2022-07-04T12:39:41;102077.03;;;27.19;36.51
64388;BME280;50709;52.648;4.764;2022-07-04T12:42:17;102038.38;;;26.87;37.07
64388;BME280;50709;52.648;4.764;2022-07-04T12:44:46;102063.59;;;27.21;34.78
64388;BME280;50709;52.648;4.764;2022-07-04T12:47:15;102073.28;;;27.43;36.97
64388;BME280;50709;52.648;4.764;2022-07-04T12:49:45;102073.69;;;26.97;36.43
64388;BME280;50709;52.648;4.764;2022-07-04T12:52:16;102072.03;;;26.94;32.99
64388;BME280;50709;52.648;4.764;2022-07-04T12:54:44;102072.41;;;26.66;31.44
64388;BME280;50709;52.648;4.764;2022-07-04T12:57:16;102038.28;;;26.50;37.18
64388;BME280;50709;52.648;4.764;2022-07-04T12:59:43;102027.41;;;26.74;34.20
64388;BME280;50709;52.648;4.764;2022-07-04T13:02:09;102035.59;;;27.27;35.56
64388;BME280;50709;52.648;4.764;2022-07-04T13:04:35;102069.44;;;27.29;37.20
64388;BME280;50709;52.648;4.764;2022-07-04T13:07:14;102047.53;;;27.19;36.19
64388;BME280;50709;52.648;4.764;2022-07-04T13:09:41;102059.16;;;27.39;35.73
64388;BME280;50709;52.648;4.764;2022-07-04T13:12:08;102021.03;;;27.85;32.86
64388;BME280;50709;52.648;4.764;2022-07-04T13:14:57;102049.56;;;26.78;31.24
64388;BME280;50709;52.648;4.764;2022-07-04T13:17:24;102027.03;;;27.38;34.49